Piedmont, South Dakota
Current Conditions -  °F | °C
As of 6:58 AM on Thursday 30 Oct 2014 (Local Time) from KRCA Reporting Station
Clear Clear  
Wind Chill: 42°   Ceiling: Unl
Heat Index: 47°   Visibility: 10mi
Dew Point: 32°   Wind: 10mph
Humidity: 57%   Direction: 340°NNW
Pressure: 30.21"   Gusts: NA
Location:  44.23°N, 103.39°W
Report Text: KRCA 301258Z AUTO 34009KT 10SM CLR 08/00 A3021 RMK AO2 SLP237 T00810001 $
Loading
Personal Weather Stations






























Interactive Weather Map
Tropical Storm Tracking
New forecast layout! Learn more

10-Day Weather Forecast

Advertisements
Track Severe Weather on mobile